Dades meteomassalio
 
Diari Summary for Octubre 16, 2018 Units:  Both    English   Metric
« Previous Day
Next Day »
Diari Semanal Mensual Anual Personalitzat
  Actual: Maxima: Minima: Mijana:
Temperatura: 6.7 °F /  -14.1 °C TemperatureC °F /  -17.8 °C 6.7 °F /  -14.1 °C 7.9 °F /  -13.4 °C
Rosada: 5.6 °F /  -14.7 °C DewpointC °F /  -17.8 °C 5.4 °F /  -14.8 °C 6.6 °F /  -14.1 °C
Humitat: 93 % Humidity % 88 % 90 %
Velocitat del vent: 0.0 mph /  0 km/h WindSpeedKMH mph /  0 km/h - 0 mph /  0 km/h
Racha vent: 0.0 mph /  0 km/h WindSpeedGustKMH mph /  0 km/h - -
Vent:Calm - - North
Pressio: 1016.4 in /  34415.3 hPa PressurehPa in /  0 hPa 1013.9 in /  34330.7 hPa -
Pluja: 0.0 in /  0 mm      
Historical Graphs
 
 
Tabular Data for Octubre 16, 2018
Time Temperature Dew Point Pressure Wind Wind Speed Wind Gust Humidity Rainfall Rate (Hourly) solar Conditions
TemperatureC °F /  -17.8 °C DewpointC °F /  -17.8 °C PressurehPa in /  0 hPa Calm     Humidity % HourlyPrecipMM in /  0 mm SolarRadiationWatts/m^2 W/m2 Conditions
00:04 8.9 °F /  -12.8 °C 7.0 °F /  -13.9 °C 1014.0 in /  34334 hPa Calm     88 % 0.0 in /  0 mm 0.00 W/m2 RA
00:09 8.9 °F /  -12.8 °C 7.0 °F /  -13.9 °C 1014.1 in /  34337.4 hPa Calm     88 % 0.0 in /  0 mm 0.00 W/m2 CLR
00:14 8.9 °F /  -12.8 °C 7.2 °F /  -13.8 °C 1014.1 in /  34337.4 hPa Calm     89 % 0.0 in /  0 mm 0.00 W/m2 CLR
00:19 8.9 °F /  -12.8 °C 7.2 °F /  -13.8 °C 1014.0 in /  34334 hPa Calm     89 % 0.0 in /  0 mm 0.00 W/m2 CLR
00:24 8.9 °F /  -12.8 °C 7.2 °F /  -13.8 °C 1013.9 in /  34330.7 hPa Calm     89 % 0.0 in /  0 mm 0.00 W/m2 CLR
00:29 8.9 °F /  -12.8 °C 7.2 °F /  -13.8 °C 1014.0 in /  34334 hPa Calm     89 % 0.0 in /  0 mm 0.00 W/m2 CLR
00:34 8.9 °F /  -12.8 °C 7.2 °F /  -13.8 °C 1014.1 in /  34337.4 hPa Calm     89 % 0.0 in /  0 mm 0.00 W/m2 CLR
00:39 8.9 °F /  -12.8 °C 7.2 °F /  -13.8 °C 1014.1 in /  34337.4 hPa Calm     89 % 0.0 in /  0 mm 0.00 W/m2 CLR
00:44 8.9 °F /  -12.8 °C 7.3 °F /  -13.7 °C 1014.1 in /  34337.4 hPa Calm     90 % 0.0 in /  0 mm 0.00 W/m2 CLR
00:49 8.9 °F /  -12.8 °C 7.2 °F /  -13.8 °C 1014.1 in /  34337.4 hPa Calm     89 % 0.0 in /  0 mm 0.00 W/m2 CLR
00:54 8.9 °F /  -12.8 °C 7.3 °F /  -13.7 °C 1014.2 in /  34340.8 hPa Calm     90 % 0.0 in /  0 mm 0.00 W/m2 CLR
00:59 8.9 °F /  -12.8 °C 7.3 °F /  -13.7 °C 1014.1 in /  34337.4 hPa Calm     90 % 0.0 in /  0 mm 0.00 W/m2 CLR
01:04 8.9 °F /  -12.8 °C 7.3 °F /  -13.7 °C 1014.2 in /  34340.8 hPa Calm     90 % 0.0 in /  0 mm 0.00 W/m2 CLR
01:09 8.9 °F /  -12.8 °C 7.3 °F /  -13.7 °C 1014.3 in /  34344.2 hPa Calm     90 % 0.0 in /  0 mm 0.00 W/m2 CLR
01:14 8.9 °F /  -12.8 °C 7.3 °F /  -13.7 °C 1014.3 in /  34344.2 hPa Calm     90 % 0.0 in /  0 mm 0.00 W/m2 CLR
01:19 8.9 °F /  -12.8 °C 7.3 °F /  -13.7 °C 1014.3 in /  34344.2 hPa Calm     90 % 0.0 in /  0 mm 0.00 W/m2 CLR
01:24 8.9 °F /  -12.8 °C 7.3 °F /  -13.7 °C 1014.3 in /  34344.2 hPa Calm     90 % 0.0 in /  0 mm 0.00 W/m2 CLR
01:29 8.9 °F /  -12.8 °C 7.3 °F /  -13.7 °C 1014.3 in /  34344.2 hPa Calm     90 % 0.0 in /  0 mm 0.00 W/m2 CLR
01:34 8.9 °F /  -12.8 °C 7.3 °F /  -13.7 °C 1014.3 in /  34344.2 hPa Calm     90 % 0.0 in /  0 mm 0.00 W/m2 CLR
01:39 8.9 °F /  -12.8 °C 7.3 °F /  -13.7 °C 1014.4 in /  34347.6 hPa Calm     90 % 0.0 in /  0 mm 0.00 W/m2 CLR
01:44 8.9 °F /  -12.8 °C 7.5 °F /  -13.6 °C 1014.4 in /  34347.6 hPa Calm     91 % 0.0 in /  0 mm 0.00 W/m2 CLR
01:49 8.9 °F /  -12.8 °C 7.5 °F /  -13.6 °C 1014.3 in /  34344.2 hPa Calm     91 % 0.0 in /  0 mm 0.00 W/m2 CLR
01:54 8.9 °F /  -12.8 °C 7.5 °F /  -13.6 °C 1014.4 in /  34347.6 hPa Calm     91 % 0.0 in /  0 mm 0.00 W/m2 CLR
01:59 8.9 °F /  -12.8 °C 7.5 °F /  -13.6 °C 1014.3 in /  34344.2 hPa Calm     91 % 0.0 in /  0 mm 0.00 W/m2 CLR
02:04 8.9 °F /  -12.8 °C 7.3 °F /  -13.7 °C 1014.3 in /  34344.2 hPa Calm     90 % 0.0 in /  0 mm 0.00 W/m2 CLR
02:09 8.9 °F /  -12.8 °C 7.5 °F /  -13.6 °C 1014.4 in /  34347.6 hPa Calm     91 % 0.0 in /  0 mm 0.00 W/m2 CLR
02:14 8.9 °F /  -12.8 °C 7.5 °F /  -13.6 °C 1014.4 in /  34347.6 hPa Calm     91 % 0.0 in /  0 mm 0.00 W/m2 CLR
02:19 8.9 °F /  -12.8 °C 7.5 °F /  -13.6 °C 1014.5 in /  34351 hPa Calm     91 % 0.0 in /  0 mm 0.00 W/m2 CLR
02:24 8.9 °F /  -12.8 °C 7.5 °F /  -13.6 °C 1014.6 in /  34354.4 hPa Calm     91 % 0.0 in /  0 mm 0.00 W/m2 CLR
02:29 8.9 °F /  -12.8 °C 7.5 °F /  -13.6 °C 1014.5 in /  34351 hPa Calm     91 % 0.0 in /  0 mm 0.00 W/m2 CLR
02:34 8.3 °F /  -13.2 °C 6.9 °F /  -13.9 °C 1014.7 in /  34357.7 hPa Calm     91 % 0.0 in /  0 mm 0.00 W/m2 CLR
02:39 8.3 °F /  -13.2 °C 6.9 °F /  -13.9 °C 1014.7 in /  34357.7 hPa Calm     91 % 0.0 in /  0 mm 0.00 W/m2 CLR
02:44 8.3 °F /  -13.2 °C 6.9 °F /  -13.9 °C 1014.7 in /  34357.7 hPa Calm     91 % 0.0 in /  0 mm 0.00 W/m2 CLR
02:49 8.3 °F /  -13.2 °C 6.9 °F /  -13.9 °C 1014.6 in /  34354.4 hPa Calm     91 % 0.0 in /  0 mm 0.00 W/m2 CLR
02:54 8.3 °F /  -13.2 °C 6.9 °F /  -13.9 °C 1014.6 in /  34354.4 hPa Calm     91 % 0.0 in /  0 mm 0.00 W/m2 CLR
02:59 8.3 °F /  -13.2 °C 6.9 °F /  -13.9 °C 1014.7 in /  34357.7 hPa Calm     91 % 0.0 in /  0 mm 0.00 W/m2 CLR
03:04 8.3 °F /  -13.2 °C 7.1 °F /  -13.8 °C 1014.7 in /  34357.7 hPa Calm     92 % 0.0 in /  0 mm 0.00 W/m2 CLR
03:09 8.3 °F /  -13.2 °C 7.1 °F /  -13.8 °C 1014.8 in /  34361.1 hPa Calm     92 % 0.0 in /  0 mm 0.00 W/m2 CLR
03:14 8.3 °F /  -13.2 °C 7.1 °F /  -13.8 °C 1014.7 in /  34357.7 hPa Calm     92 % 0.0 in /  0 mm 0.00 W/m2 CLR
03:19 8.3 °F /  -13.2 °C 6.9 °F /  -13.9 °C 1014.7 in /  34357.7 hPa Calm     91 % 0.0 in /  0 mm 0.00 W/m2 CLR
03:24 8.3 °F /  -13.2 °C 6.9 °F /  -13.9 °C 1014.6 in /  34354.4 hPa Calm     91 % 0.0 in /  0 mm 0.00 W/m2 CLR
03:29 7.8 °F /  -13.4 °C 6.6 °F /  -14.1 °C 1014.6 in /  34354.4 hPa Calm     92 % 0.0 in /  0 mm 0.00 W/m2 CLR
03:34 7.8 °F /  -13.4 °C 6.6 °F /  -14.1 °C 1014.6 in /  34354.4 hPa Calm     92 % 0.0 in /  0 mm 0.00 W/m2 CLR
03:39 7.8 °F /  -13.4 °C 6.6 °F /  -14.1 °C 1014.6 in /  34354.4 hPa Calm     92 % 0.0 in /  0 mm 0.00 W/m2 CLR
03:44 7.8 °F /  -13.4 °C 6.6 °F /  -14.1 °C 1014.6 in /  34354.4 hPa Calm     92 % 0.0 in /  0 mm 0.00 W/m2 CLR
03:49 7.8 °F /  -13.4 °C 6.6 °F /  -14.1 °C 1014.6 in /  34354.4 hPa Calm     92 % 0.0 in /  0 mm 0.00 W/m2 CLR
03:54 7.8 °F /  -13.4 °C 6.6 °F /  -14.1 °C 1014.7 in /  34357.7 hPa Calm     92 % 0.0 in /  0 mm 0.00 W/m2 CLR
03:59 7.8 °F /  -13.4 °C 6.6 °F /  -14.1 °C 1014.6 in /  34354.4 hPa Calm     92 % 0.0 in /  0 mm 0.00 W/m2 CLR
04:04 7.8 °F /  -13.4 °C 6.6 °F /  -14.1 °C 1014.6 in /  34354.4 hPa Calm     92 % 0.0 in /  0 mm 0.00 W/m2 CLR
04:09 7.8 °F /  -13.4 °C 6.6 °F /  -14.1 °C 1014.5 in /  34351 hPa Calm     92 % 0.0 in /  0 mm 0.00 W/m2 CLR
04:14 7.8 °F /  -13.4 °C 6.6 °F /  -14.1 °C 1014.6 in /  34354.4 hPa Calm     92 % 0.0 in /  0 mm 0.00 W/m2 CLR
04:19 7.8 °F /  -13.4 °C 6.6 °F /  -14.1 °C 1014.5 in /  34351 hPa Calm     92 % 0.0 in /  0 mm 0.00 W/m2 CLR
04:24 7.8 °F /  -13.4 °C 6.6 °F /  -14.1 °C 1014.5 in /  34351 hPa Calm     92 % 0.0 in /  0 mm 0.00 W/m2 CLR
04:29 7.8 °F /  -13.4 °C 6.6 °F /  -14.1 °C 1014.5 in /  34351 hPa Calm     92 % 0.0 in /  0 mm 0.00 W/m2 CLR
04:34 7.8 °F /  -13.4 °C 6.6 °F /  -14.1 °C 1014.5 in /  34351 hPa Calm     92 % 0.0 in /  0 mm 0.00 W/m2 CLR
04:39 7.8 °F /  -13.4 °C 6.6 °F /  -14.1 °C 1014.7 in /  34357.7 hPa Calm     92 % 0.0 in /  0 mm 0.00 W/m2 CLR
04:44 7.8 °F /  -13.4 °C 6.6 °F /  -14.1 °C 1014.6 in /  34354.4 hPa Calm     92 % 0.0 in /  0 mm 0.00 W/m2 CLR
04:49 7.8 °F /  -13.4 °C 6.6 °F /  -14.1 °C 1014.6 in /  34354.4 hPa Calm     92 % 0.0 in /  0 mm 0.00 W/m2 CLR
04:54 7.8 °F /  -13.4 °C 6.6 °F /  -14.1 °C 1014.5 in /  34351 hPa Calm     92 % 0.0 in /  0 mm 0.00 W/m2 CLR
04:59 7.8 °F /  -13.4 °C 6.6 °F /  -14.1 °C 1014.5 in /  34351 hPa Calm     92 % 0.0 in /  0 mm 0.00 W/m2 CLR
05:04 7.8 °F /  -13.4 °C 6.6 °F /  -14.1 °C 1014.5 in /  34351 hPa Calm     92 % 0.0 in /  0 mm 0.00 W/m2 CLR
05:09 7.8 °F /  -13.4 °C 6.6 °F /  -14.1 °C 1014.6 in /  34354.4 hPa Calm     92 % 0.0 in /  0 mm 0.00 W/m2 CLR
05:14 7.2 °F /  -13.8 °C 6.0 °F /  -14.4 °C 1014.7 in /  34357.7 hPa Calm     92 % 0.0 in /  0 mm 0.00 W/m2 CLR
05:19 7.2 °F /  -13.8 °C 6.0 °F /  -14.4 °C 1014.8 in /  34361.1 hPa Calm     92 % 0.0 in /  0 mm 0.00 W/m2 CLR
05:24 7.2 °F /  -13.8 °C 6.0 °F /  -14.4 °C 1014.8 in /  34361.1 hPa Calm     92 % 0.0 in /  0 mm 0.00 W/m2 CLR
05:29 7.2 °F /  -13.8 °C 6.0 °F /  -14.4 °C 1014.9 in /  34364.5 hPa Calm     92 % 0.0 in /  0 mm 0.00 W/m2 CLR
05:34 7.2 °F /  -13.8 °C 6.0 °F /  -14.4 °C 1014.9 in /  34364.5 hPa Calm     92 % 0.0 in /  0 mm 0.00 W/m2 CLR
05:39 7.2 °F /  -13.8 °C 6.0 °F /  -14.4 °C 1015.0 in /  34367.9 hPa Calm     92 % 0.0 in /  0 mm 0.00 W/m2 CLR
05:44 7.2 °F /  -13.8 °C 6.2 °F /  -14.3 °C 1015.1 in /  34371.3 hPa Calm     93 % 0.0 in /  0 mm 0.00 W/m2 CLR
05:49 7.2 °F /  -13.8 °C 6.2 °F /  -14.3 °C 1015.2 in /  34374.7 hPa Calm     93 % 0.0 in /  0 mm 0.00 W/m2 CLR
05:54 7.2 °F /  -13.8 °C 6.0 °F /  -14.4 °C 1015.3 in /  34378.1 hPa Calm     92 % 0.0 in /  0 mm 0.00 W/m2 CLR
05:59 7.2 °F /  -13.8 °C 6.0 °F /  -14.4 °C 1015.5 in /  34384.8 hPa Calm     92 % 0.0 in /  0 mm 0.00 W/m2 CLR
06:04 7.2 °F /  -13.8 °C 6.2 °F /  -14.3 °C 1015.5 in /  34384.8 hPa Calm     93 % 0.0 in /  0 mm 0.00 W/m2 CLR
06:09 7.2 °F /  -13.8 °C 6.2 °F /  -14.3 °C 1015.5 in /  34384.8 hPa Calm     93 % 0.0 in /  0 mm 0.00 W/m2 CLR
06:14 7.2 °F /  -13.8 °C 6.0 °F /  -14.4 °C 1015.5 in /  34384.8 hPa Calm     92 % 0.0 in /  0 mm 0.00 W/m2 CLR
06:19 7.8 °F /  -13.4 °C 6.6 °F /  -14.1 °C 1015.5 in /  34384.8 hPa Calm     92 % 0.0 in /  0 mm 0.00 W/m2 CLR
06:24 7.8 °F /  -13.4 °C 6.6 °F /  -14.1 °C 1015.6 in /  34388.2 hPa Calm     92 % 0.0 in /  0 mm 0.00 W/m2 CLR
06:29 7.8 °F /  -13.4 °C 6.6 °F /  -14.1 °C 1015.6 in /  34388.2 hPa Calm     92 % 0.0 in /  0 mm 0.00 W/m2 CLR
06:34 7.8 °F /  -13.4 °C 6.7 °F /  -14.1 °C 1015.6 in /  34388.2 hPa Calm     93 % 0.0 in /  0 mm 0.00 W/m2 CLR
06:39 7.2 °F /  -13.8 °C 6.2 °F /  -14.3 °C 1015.7 in /  34391.6 hPa Calm     93 % 0.0 in /  0 mm 0.00 W/m2 CLR
06:44 7.2 °F /  -13.8 °C 6.0 °F /  -14.4 °C 1015.8 in /  34395 hPa Calm     92 % 0.0 in /  0 mm 0.00 W/m2 CLR
06:49 7.2 °F /  -13.8 °C 6.0 °F /  -14.4 °C 1015.8 in /  34395 hPa Calm     92 % 0.0 in /  0 mm 0.00 W/m2 CLR
06:54 7.2 °F /  -13.8 °C 6.0 °F /  -14.4 °C 1015.8 in /  34395 hPa Calm     92 % 0.0 in /  0 mm 0.00 W/m2 CLR
06:59 7.2 °F /  -13.8 °C 6.0 °F /  -14.4 °C 1015.9 in /  34398.4 hPa Calm     92 % 0.0 in /  0 mm 0.00 W/m2 CLR
07:04 6.7 °F /  -14.1 °C 5.4 °F /  -14.8 °C 1015.9 in /  34398.4 hPa Calm     92 % 0.0 in /  0 mm 0.00 W/m2 CLR
07:09 6.7 °F /  -14.1 °C 5.6 °F /  -14.7 °C 1015.9 in /  34398.4 hPa Calm     93 % 0.0 in /  0 mm 0.00 W/m2 CLR
07:14 6.7 °F /  -14.1 °C 5.6 °F /  -14.7 °C 1015.9 in /  34398.4 hPa Calm     93 % 0.0 in /  0 mm 0.00 W/m2 CLR
07:19 7.2 °F /  -13.8 °C 6.2 °F /  -14.3 °C 1016.0 in /  34401.8 hPa Calm     93 % 0.0 in /  0 mm 0.00 W/m2 CLR
07:24 6.7 °F /  -14.1 °C 5.4 °F /  -14.8 °C 1016.0 in /  34401.8 hPa Calm     92 % 0.0 in /  0 mm 0.00 W/m2 CLR
07:29 6.7 °F /  -14.1 °C 5.4 °F /  -14.8 °C 1016.0 in /  34401.8 hPa Calm     92 % 0.0 in /  0 mm 0.00 W/m2 CLR
07:34 6.7 °F /  -14.1 °C 5.4 °F /  -14.8 °C 1016.2 in /  34408.5 hPa Calm     92 % 0.0 in /  0 mm 0.00 W/m2 CLR
07:39 6.7 °F /  -14.1 °C 5.6 °F /  -14.7 °C 1016.3 in /  34411.9 hPa Calm     93 % 0.0 in /  0 mm 0.00 W/m2 CLR
07:44 6.7 °F /  -14.1 °C 5.6 °F /  -14.7 °C 1016.4 in /  34415.3 hPa Calm     93 % 0.0 in /  0 mm 0.00 W/m2 CLR
Lo Temps de Massalio
Compliments of Weather Underground - 512 kb